sensor_id;sensor_type;location;lat;lon;timestamp;pressure;altitude;pressure_sealevel;temperature;humidity
45403;BME280;47427;51.976;5.326;2022-08-01T00:00:32;101606.22;;;19.51;92.21
45403;BME280;47427;51.976;5.326;2022-08-01T00:03:54;101608.91;;;19.47;92.37
45403;BME280;47427;51.976;5.326;2022-08-01T00:07:17;101612.41;;;19.49;92.44
45403;BME280;47427;51.976;5.326;2022-08-01T00:10:40;101601.81;;;19.53;92.12
45403;BME280;47427;51.976;5.326;2022-08-01T00:14:04;101605.31;;;19.47;92.38
45403;BME280;47427;51.976;5.326;2022-08-01T00:17:27;101605.31;;;19.44;91.92
45403;BME280;47427;51.976;5.326;2022-08-01T00:21:08;101604.44;;;19.36;92.08
45403;BME280;47427;51.976;5.326;2022-08-01T00:24:31;101609.75;;;19.37;92.02
45403;BME280;47427;51.976;5.326;2022-08-01T00:27:53;101608.84;;;19.29;92.02
45403;BME280;47427;51.976;5.326;2022-08-01T00:31:16;101610.63;;;19.32;91.94
45403;BME280;47427;51.976;5.326;2022-08-01T00:34:39;101613.28;;;19.28;92.23
45403;BME280;47427;51.976;5.326;2022-08-01T00:38:02;101611.50;;;19.26;92.22
45403;BME280;47427;51.976;5.326;2022-08-01T00:41:24;101598.16;;;19.21;92.22
45403;BME280;47427;51.976;5.326;2022-08-01T00:44:47;101610.63;;;19.28;92.06
45403;BME280;47427;51.976;5.326;2022-08-01T00:48:11;101609.72;;;19.17;92.26
45403;BME280;47427;51.976;5.326;2022-08-01T00:51:34;101611.50;;;19.23;92.38
45403;BME280;47427;51.976;5.326;2022-08-01T00:55:17;101615.03;;;19.20;92.58
45403;BME280;47427;51.976;5.326;2022-08-01T00:59:01;101622.13;;;19.20;92.90
45403;BME280;47427;51.976;5.326;2022-08-01T01:02:44;101615.91;;;19.16;92.48
45403;BME280;47427;51.976;5.326;2022-08-01T01:06:14;101625.66;;;19.13;92.91
45403;BME280;47427;51.976;5.326;2022-08-01T01:09:47;101621.22;;;19.13;93.19
45403;BME280;47427;51.976;5.326;2022-08-01T01:13:20;101611.44;;;19.08;93.10
45403;BME280;47427;51.976;5.326;2022-08-01T01:17:06;101614.97;;;18.97;93.62
45403;BME280;47427;51.976;5.326;2022-08-01T01:20:40;101612.25;;;18.82;94.12
45403;BME280;47427;51.976;5.326;2022-08-01T01:24:34;101611.28;;;18.72;94.92
45403;BME280;47427;51.976;5.326;2022-08-01T01:28:15;101613.06;;;18.75;95.02
45403;BME280;47427;51.976;5.326;2022-08-01T01:31:46;101601.56;;;18.76;95.11
45403;BME280;47427;51.976;5.326;2022-08-01T01:35:26;101598.06;;;18.81;94.95
45403;BME280;47427;51.976;5.326;2022-08-01T01:38:51;101606.06;;;18.91;94.81
45403;BME280;47427;51.976;5.326;2022-08-01T01:42:17;101605.16;;;18.82;94.75
45403;BME280;47427;51.976;5.326;2022-08-01T01:45:41;101610.47;;;18.82;94.89
45403;BME280;47427;51.976;5.326;2022-08-01T01:49:05;101600.66;;;18.74;94.95
45403;BME280;47427;51.976;5.326;2022-08-01T01:52:32;101603.28;;;18.66;96.08
45403;BME280;47427;51.976;5.326;2022-08-01T01:55:57;101606.81;;;18.63;95.87
45403;BME280;47427;51.976;5.326;2022-08-01T01:59:25;101609.47;;;18.63;96.03
45403;BME280;47427;51.976;5.326;2022-08-01T02:02:50;101606.78;;;18.62;96.56
45403;BME280;47427;51.976;5.326;2022-08-01T02:06:15;101606.78;;;18.60;96.36
45403;BME280;47427;51.976;5.326;2022-08-01T02:09:41;101604.03;;;18.48;96.38
45403;BME280;47427;51.976;5.326;2022-08-01T02:13:05;101603.97;;;18.37;97.08
45403;BME280;47427;51.976;5.326;2022-08-01T02:16:33;101606.59;;;18.33;97.63
45403;BME280;47427;51.976;5.326;2022-08-01T02:19:57;101613.66;;;18.28;98.10
45403;BME280;47427;51.976;5.326;2022-08-01T02:23:20;101608.41;;;18.34;98.43
45403;BME280;47427;51.976;5.326;2022-08-01T02:26:52;101609.31;;;18.40;98.20
45403;BME280;47427;51.976;5.326;2022-08-01T02:30:17;101614.72;;;18.56;97.67
45403;BME280;47427;51.976;5.326;2022-08-01T02:34:08;101611.19;;;18.54;97.68
45403;BME280;47427;51.976;5.326;2022-08-01T02:37:34;101619.94;;;18.36;98.13
45403;BME280;47427;51.976;5.326;2022-08-01T02:41:20;101618.19;;;18.41;98.50
45403;BME280;47427;51.976;5.326;2022-08-01T02:44:44;101621.81;;;18.55;98.16
45403;BME280;47427;51.976;5.326;2022-08-01T02:48:12;101619.16;;;18.54;98.00
45403;BME280;47427;51.976;5.326;2022-08-01T02:51:37;101616.50;;;18.57;98.16
45403;BME280;47427;51.976;5.326;2022-08-01T02:55:02;101619.19;;;18.61;97.94
45403;BME280;47427;51.976;5.326;2022-08-01T02:58:25;101605.00;;;18.59;97.75
45403;BME280;47427;51.976;5.326;2022-08-01T03:01:49;101607.66;;;18.59;97.72
45403;BME280;47427;51.976;5.326;2022-08-01T03:05:13;101604.06;;;18.56;97.93
45403;BME280;47427;51.976;5.326;2022-08-01T03:08:37;101608.47;;;18.48;97.79
45403;BME280;47427;51.976;5.326;2022-08-01T03:12:04;101607.56;;;18.42;98.22
45403;BME280;47427;51.976;5.326;2022-08-01T03:15:28;101606.69;;;18.44;98.19
45403;BME280;47427;51.976;5.326;2022-08-01T03:18:55;101610.19;;;18.36;98.00
45403;BME280;47427;51.976;5.326;2022-08-01T03:22:24;101611.91;;;18.27;98.43
45403;BME280;47427;51.976;5.326;2022-08-01T03:25:49;101624.25;;;18.22;98.95
45403;BME280;47427;51.976;5.326;2022-08-01T03:29:22;101626.06;;;18.26;98.75
45403;BME280;47427;51.976;5.326;2022-08-01T03:32:47;101618.88;;;18.12;98.79
45403;BME280;47427;51.976;5.326;2022-08-01T03:36:10;101629.31;;;17.92;99.59
45403;BME280;47427;51.976;5.326;2022-08-01T03:40:07;101627.47;;;17.82;100.00
45403;BME280;47427;51.976;5.326;2022-08-01T03:43:40;101627.69;;;18.10;99.89
45403;BME280;47427;51.976;5.326;2022-08-01T03:47:07;101623.34;;;18.19;99.31
45403;BME280;47427;51.976;5.326;2022-08-01T03:50:33;101625.13;;;18.19;98.93
45403;BME280;47427;51.976;5.326;2022-08-01T03:53:57;101621.53;;;18.14;99.25
45403;BME280;47427;51.976;5.326;2022-08-01T03:57:23;101627.75;;;18.13;99.33
45403;BME280;47427;51.976;5.326;2022-08-01T04:00:50;101621.41;;;18.00;99.48
45403;BME280;47427;51.976;5.326;2022-08-01T04:04:13;101625.00;;;18.01;99.90
45403;BME280;47427;51.976;5.326;2022-08-01T04:07:36;101625.16;;;18.24;99.32
45403;BME280;47427;51.976;5.326;2022-08-01T04:11:01;101627.94;;;18.42;98.32
45403;BME280;47427;51.976;5.326;2022-08-01T04:14:24;101629.75;;;18.49;97.77
45403;BME280;47427;51.976;5.326;2022-08-01T04:17:47;101625.28;;;18.44;97.63
45403;BME280;47427;51.976;5.326;2022-08-01T04:21:10;101631.44;;;18.38;97.87
45403;BME280;47427;51.976;5.326;2022-08-01T04:24:33;101630.53;;;18.31;97.44
45403;BME280;47427;51.976;5.326;2022-08-01T04:27:58;101633.84;;;18.03;98.79
45403;BME280;47427;51.976;5.326;2022-08-01T04:31:24;101645.13;;;17.79;99.38
45403;BME280;47427;51.976;5.326;2022-08-01T04:34:49;101639.69;;;17.66;99.92
45403;BME280;47427;51.976;5.326;2022-08-01T04:38:17;101651.09;;;17.56;100.00
45403;BME280;47427;51.976;5.326;2022-08-01T04:41:42;101649.31;;;17.57;100.00
45403;BME280;47427;51.976;5.326;2022-08-01T04:45:07;101647.91;;;17.88;100.00
45403;BME280;47427;51.976;5.326;2022-08-01T04:48:32;101649.03;;;18.22;99.47
45403;BME280;47427;51.976;5.326;2022-08-01T04:51:57;101655.38;;;18.42;98.13
45403;BME280;47427;51.976;5.326;2022-08-01T04:55:20;101657.25;;;18.57;97.28
45403;BME280;47427;51.976;5.326;2022-08-01T04:59:01;101662.63;;;18.68;96.32
45403;BME280;47427;51.976;5.326;2022-08-01T05:02:42;101671.59;;;18.76;95.84
45403;BME280;47427;51.976;5.326;2022-08-01T05:06:06;101661.84;;;18.80;95.47
45403;BME280;47427;51.976;5.326;2022-08-01T05:09:29;101664.56;;;18.91;94.96
45403;BME280;47427;51.976;5.326;2022-08-01T05:12:53;101669.91;;;18.95;94.87
45403;BME280;47427;51.976;5.326;2022-08-01T05:16:16;101673.47;;;19.03;94.67
45403;BME280;47427;51.976;5.326;2022-08-01T05:19:40;101679.75;;;19.12;94.35
45403;BME280;47427;51.976;5.326;2022-08-01T05:23:06;101672.69;;;19.23;94.04
45403;BME280;47427;51.976;5.326;2022-08-01T05:26:47;101678.97;;;19.45;93.20
45403;BME280;47427;51.976;5.326;2022-08-01T05:30:11;101680.84;;;19.80;92.24
45403;BME280;47427;51.976;5.326;2022-08-01T05:33:34;101665.75;;;19.97;90.86
45403;BME280;47427;51.976;5.326;2022-08-01T05:36:57;101678.22;;;20.18;90.12
45403;BME280;47427;51.976;5.326;2022-08-01T05:40:20;101679.09;;;20.26;89.55
45403;BME280;47427;51.976;5.326;2022-08-01T05:43:42;101676.41;;;20.51;88.18
45403;BME280;47427;51.976;5.326;2022-08-01T05:47:05;101679.03;;;20.80;87.17
45403;BME280;47427;51.976;5.326;2022-08-01T05:50:28;101675.47;;;20.86;86.58
45403;BME280;47427;51.976;5.326;2022-08-01T05:53:51;101678.16;;;20.80;86.51
45403;BME280;47427;51.976;5.326;2022-08-01T05:57:14;101687.03;;;20.80;86.46
45403;BME280;47427;51.976;5.326;2022-08-01T06:00:36;101687.91;;;20.84;86.50
45403;BME280;47427;51.976;5.326;2022-08-01T06:03:59;101689.72;;;20.82;85.16
45403;BME280;47427;51.976;5.326;2022-08-01T06:07:22;101691.47;;;20.83;85.31
45403;BME280;47427;51.976;5.326;2022-08-01T06:10:44;101688.84;;;20.70;84.66
45403;BME280;47427;51.976;5.326;2022-08-01T06:14:07;101694.16;;;20.75;84.83
45403;BME280;47427;51.976;5.326;2022-08-01T06:17:30;101695.03;;;20.83;84.02
45403;BME280;47427;51.976;5.326;2022-08-01T06:20:53;101694.03;;;21.15;83.69
45403;BME280;47427;51.976;5.326;2022-08-01T06:24:15;101696.69;;;21.21;82.51
45403;BME280;47427;51.976;5.326;2022-08-01T06:27:38;101699.44;;;21.04;82.61
45403;BME280;47427;51.976;5.326;2022-08-01T06:31:01;101703.09;;;20.59;83.13
45403;BME280;47427;51.976;5.326;2022-08-01T06:34:24;101712.84;;;20.38;84.06
45403;BME280;47427;51.976;5.326;2022-08-01T06:37:46;101712.84;;;20.23;84.90
45403;BME280;47427;51.976;5.326;2022-08-01T06:41:28;101719.03;;;19.91;86.39
45403;BME280;47427;51.976;5.326;2022-08-01T06:44:50;101717.25;;;19.91;86.50
45403;BME280;47427;51.976;5.326;2022-08-01T06:48:13;101729.69;;;19.91;86.53
45403;BME280;47427;51.976;5.326;2022-08-01T06:51:36;101730.59;;;19.93;87.16
45403;BME280;47427;51.976;5.326;2022-08-01T06:54:59;101731.47;;;19.97;86.87
45403;BME280;47427;51.976;5.326;2022-08-01T06:58:21;101730.59;;;20.01;86.45
45403;BME280;47427;51.976;5.326;2022-08-01T07:01:44;101728.84;;;20.03;86.34
45403;BME280;47427;51.976;5.326;2022-08-01T07:05:07;101731.47;;;20.00;86.58
45403;BME280;47427;51.976;5.326;2022-08-01T07:08:31;101732.41;;;20.11;86.66
45403;BME280;47427;51.976;5.326;2022-08-01T07:11:54;101735.94;;;20.24;86.52
45403;BME280;47427;51.976;5.326;2022-08-01T07:15:18;101733.28;;;20.34;86.22
45403;BME280;47427;51.976;5.326;2022-08-01T07:18:43;101735.97;;;20.36;85.91
45403;BME280;47427;51.976;5.326;2022-08-01T07:22:05;101743.94;;;20.50;85.24
45403;BME280;47427;51.976;5.326;2022-08-01T07:25:28;101738.63;;;20.68;84.82
45403;BME280;47427;51.976;5.326;2022-08-01T07:28:52;101736.78;;;21.04;83.97
45403;BME280;47427;51.976;5.326;2022-08-01T07:32:15;101741.09;;;21.37;82.58
45403;BME280;47427;51.976;5.326;2022-08-01T07:35:38;101736.59;;;21.52;80.52
45403;BME280;47427;51.976;5.326;2022-08-01T07:39:01;101750.84;;;21.58;78.81
45403;BME280;47427;51.976;5.326;2022-08-01T07:42:43;101751.59;;;21.77;79.42
45403;BME280;47427;51.976;5.326;2022-08-01T07:46:07;101754.16;;;21.99;78.92
45403;BME280;47427;51.976;5.326;2022-08-01T07:49:29;101756.78;;;22.06;77.91
45403;BME280;47427;51.976;5.326;2022-08-01T07:52:52;101767.44;;;22.11;77.47
45403;BME280;47427;51.976;5.326;2022-08-01T07:56:15;101764.84;;;21.99;77.92
45403;BME280;47427;51.976;5.326;2022-08-01T07:59:39;101771.25;;;21.69;78.03
45403;BME280;47427;51.976;5.326;2022-08-01T08:03:20;101767.78;;;21.48;78.06
45403;BME280;47427;51.976;5.326;2022-08-01T08:06:42;101777.59;;;21.34;78.96
45403;BME280;47427;51.976;5.326;2022-08-01T08:10:06;101775.81;;;21.33;80.25
45403;BME280;47427;51.976;5.326;2022-08-01T08:13:27;101773.22;;;21.14;80.06
45403;BME280;47427;51.976;5.326;2022-08-01T08:16:51;101787.47;;;20.93;80.59
45403;BME280;47427;51.976;5.326;2022-08-01T08:20:14;101782.16;;;20.87;81.28
45403;BME280;47427;51.976;5.326;2022-08-01T08:23:38;101793.75;;;20.60;82.67
45403;BME280;47427;51.976;5.326;2022-08-01T08:27:20;101792.81;;;20.29;83.38
45403;BME280;47427;51.976;5.326;2022-08-01T08:30:42;101792.81;;;20.26;84.32
45403;BME280;47427;51.976;5.326;2022-08-01T08:34:04;101785.69;;;20.43;84.54
45403;BME280;47427;51.976;5.326;2022-08-01T08:37:27;101792.84;;;20.76;83.22
45403;BME280;47427;51.976;5.326;2022-08-01T08:40:48;101791.94;;;20.51;83.54
45403;BME280;47427;51.976;5.326;2022-08-01T08:44:11;101787.50;;;20.86;83.04
45403;BME280;47427;51.976;5.326;2022-08-01T08:47:34;101800.78;;;21.13;82.53
45403;BME280;47427;51.976;5.326;2022-08-01T08:50:58;101791.84;;;21.45;81.77
45403;BME280;47427;51.976;5.326;2022-08-01T08:54:23;101799.88;;;21.40;81.80
45403;BME280;47427;51.976;5.326;2022-08-01T08:57:45;101803.44;;;21.27;81.60
45403;BME280;47427;51.976;5.326;2022-08-01T09:01:09;101803.41;;;21.50;81.81
45403;BME280;47427;51.976;5.326;2022-08-01T09:04:32;101812.19;;;21.69;80.70
45403;BME280;47427;51.976;5.326;2022-08-01T09:07:54;101816.63;;;21.81;80.52
45403;BME280;47427;51.976;5.326;2022-08-01T09:11:17;101823.53;;;22.20;79.03
45403;BME280;47427;51.976;5.326;2022-08-01T09:14:45;101814.41;;;22.52;78.16
45403;BME280;47427;51.976;5.326;2022-08-01T09:18:25;101820.44;;;22.77;77.94
45403;BME280;47427;51.976;5.326;2022-08-01T09:21:58;101829.53;;;22.56;77.00
45403;BME280;47427;51.976;5.326;2022-08-01T09:25:20;101832.38;;;22.30;77.61
45403;BME280;47427;51.976;5.326;2022-08-01T09:28:44;101839.19;;;22.74;76.64
45403;BME280;47427;51.976;5.326;2022-08-01T09:32:07;101841.84;;;22.76;75.99
45403;BME280;47427;51.976;5.326;2022-08-01T09:35:32;101844.00;;;22.29;76.35
45403;BME280;47427;51.976;5.326;2022-08-01T09:38:55;101839.81;;;21.67;77.88
45403;BME280;47427;51.976;5.326;2022-08-01T09:42:25;101843.44;;;21.53;78.71
45403;BME280;47427;51.976;5.326;2022-08-01T09:45:47;101844.25;;;21.64;78.63
45403;BME280;47427;51.976;5.326;2022-08-01T09:49:10;101851.19;;;22.21;77.20
45403;BME280;47427;51.976;5.326;2022-08-01T09:52:32;101852.44;;;22.88;75.64
45403;BME280;47427;51.976;5.326;2022-08-01T09:55:54;101847.03;;;23.00;75.19
45403;BME280;47427;51.976;5.326;2022-08-01T09:59:15;101844.22;;;23.11;74.25
45403;BME280;47427;51.976;5.326;2022-08-01T10:02:39;101844.19;;;23.14;73.67
45403;BME280;47427;51.976;5.326;2022-08-01T10:06:19;101855.84;;;23.08;74.05
45403;BME280;47427;51.976;5.326;2022-08-01T10:09:43;101858.50;;;23.14;73.44
45403;BME280;47427;51.976;5.326;2022-08-01T10:13:06;101860.81;;;23.48;72.96
45403;BME280;47427;51.976;5.326;2022-08-01T10:16:30;101862.69;;;24.13;70.71
45403;BME280;47427;51.976;5.326;2022-08-01T10:20:01;101860.69;;;24.29;69.81
45403;BME280;47427;51.976;5.326;2022-08-01T10:23:25;101860.22;;;24.62;68.34
45403;BME280;47427;51.976;5.326;2022-08-01T10:26:52;101851.94;;;25.27;65.91
45403;BME280;47427;51.976;5.326;2022-08-01T10:30:13;101857.38;;;25.69;65.29
45403;BME280;47427;51.976;5.326;2022-08-01T10:33:36;101852.38;;;26.35;62.79
45403;BME280;47427;51.976;5.326;2022-08-01T10:37:03;101848.53;;;27.18;60.17
45403;BME280;47427;51.976;5.326;2022-08-01T10:40:26;101845.06;;;28.08;55.41
45403;BME280;47427;51.976;5.326;2022-08-01T10:43:50;101840.06;;;29.56;52.71
45403;BME280;47427;51.976;5.326;2022-08-01T10:47:40;101841.75;;;30.95;49.91
45403;BME280;47427;51.976;5.326;2022-08-01T10:51:05;101838.03;;;30.76;48.02
45403;BME280;47427;51.976;5.326;2022-08-01T10:54:27;101831.09;;;31.11;45.88
45403;BME280;47427;51.976;5.326;2022-08-01T10:57:50;101837.66;;;31.26;45.73
45403;BME280;47427;51.976;5.326;2022-08-01T11:01:22;101842.06;;;30.43;47.10
45403;BME280;47427;51.976;5.326;2022-08-01T11:05:00;101832.78;;;29.58;49.25
45403;BME280;47427;51.976;5.326;2022-08-01T11:08:22;101832.41;;;28.39;50.87
45403;BME280;47427;51.976;5.326;2022-08-01T11:15:21;101844.09;;;26.44;54.60
45403;BME280;47427;51.976;5.326;2022-08-01T11:18:55;101848.47;;;26.48;55.89
45403;BME280;47427;51.976;5.326;2022-08-01T11:22:16;101853.19;;;26.76;54.19
45403;BME280;47427;51.976;5.326;2022-08-01T11:29:16;101856.09;;;26.31;54.48
45403;BME280;47427;51.976;5.326;2022-08-01T11:32:54;101858.91;;;26.25;55.29
45403;BME280;47427;51.976;5.326;2022-08-01T11:36:18;101864.78;;;26.41;54.42
45403;BME280;47427;51.976;5.326;2022-08-01T11:39:41;101857.03;;;26.67;53.79
45403;BME280;47427;51.976;5.326;2022-08-01T11:47:13;101860.28;;;26.80;50.94
45403;BME280;47427;51.976;5.326;2022-08-01T11:50:36;101863.19;;;26.72;51.03
45403;BME280;47427;51.976;5.326;2022-08-01T11:53:58;101854.66;;;26.13;52.26
45403;BME280;47427;51.976;5.326;2022-08-01T11:57:30;101851.31;;;26.03;53.86
45403;BME280;47427;51.976;5.326;2022-08-01T12:00:58;101852.56;;;26.27;53.83
45403;BME280;47427;51.976;5.326;2022-08-01T12:04:20;101860.44;;;26.36;52.42
45403;BME280;47427;51.976;5.326;2022-08-01T12:07:43;101865.63;;;26.44;53.15
45403;BME280;47427;51.976;5.326;2022-08-01T12:11:06;101858.41;;;27.83;51.53
45403;BME280;47427;51.976;5.326;2022-08-01T12:14:29;101853.78;;;29.75;45.34
45403;BME280;47427;51.976;5.326;2022-08-01T12:18:05;101866.00;;;30.76;43.51
45403;BME280;47427;51.976;5.326;2022-08-01T12:21:27;101861.06;;;33.84;37.34
45403;BME280;47427;51.976;5.326;2022-08-01T12:24:50;101857.13;;;36.01;32.75
45403;BME280;47427;51.976;5.326;2022-08-01T12:28:12;101864.66;;;36.94;30.24
45403;BME280;47427;51.976;5.326;2022-08-01T12:31:35;101852.69;;;39.53;26.04
45403;BME280;47427;51.976;5.326;2022-08-01T12:35:06;101849.94;;;35.72;30.65
45403;BME280;47427;51.976;5.326;2022-08-01T12:38:30;101848.16;;;33.88;32.88
45403;BME280;47427;51.976;5.326;2022-08-01T12:41:53;101846.19;;;33.23;33.64
45403;BME280;47427;51.976;5.326;2022-08-01T12:45:44;101844.94;;;32.04;34.83
45403;BME280;47427;51.976;5.326;2022-08-01T12:49:04;101845.97;;;34.10;31.76
45403;BME280;47427;51.976;5.326;2022-08-01T12:52:27;101845.56;;;35.84;29.91
45403;BME280;47427;51.976;5.326;2022-08-01T12:55:54;101839.69;;;37.51;26.07
45403;BME280;47427;51.976;5.326;2022-08-01T12:59:24;101844.41;;;38.48;25.68
45403;BME280;47427;51.976;5.326;2022-08-01T13:02:48;101841.25;;;38.05;25.04
45403;BME280;47427;51.976;5.326;2022-08-01T13:06:12;101842.91;;;35.39;27.22
45403;BME280;47427;51.976;5.326;2022-08-01T13:09:35;101842.09;;;38.42;24.08
45403;BME280;47427;51.976;5.326;2022-08-01T13:12:58;101842.22;;;40.46;21.03
45403;BME280;47427;51.976;5.326;2022-08-01T13:16:23;101836.09;;;39.54;21.24
45403;BME280;47427;51.976;5.326;2022-08-01T13:19:46;101844.69;;;40.72;20.60
45403;BME280;47427;51.976;5.326;2022-08-01T13:23:17;101836.50;;;41.03;18.78
45403;BME280;47427;51.976;5.326;2022-08-01T13:26:53;101842.25;;;40.79;19.37
45403;BME280;47427;51.976;5.326;2022-08-01T13:30:19;101832.34;;;40.12;21.30
45403;BME280;47427;51.976;5.326;2022-08-01T13:33:46;101834.59;;;39.28;20.77
45403;BME280;47427;51.976;5.326;2022-08-01T13:37:09;101828.28;;;37.57;21.64
45403;BME280;47427;51.976;5.326;2022-08-01T13:40:32;101827.28;;;37.07;22.05
45403;BME280;47427;51.976;5.326;2022-08-01T13:43:55;101819.75;;;37.11;21.78
45403;BME280;47427;51.976;5.326;2022-08-01T13:47:17;101817.94;;;37.99;21.16
45403;BME280;47427;51.976;5.326;2022-08-01T13:50:39;101818.59;;;38.27;20.24
45403;BME280;47427;51.976;5.326;2022-08-01T13:54:03;101810.72;;;39.28;20.21
45403;BME280;47427;51.976;5.326;2022-08-01T13:57:25;101801.91;;;39.81;19.16
45403;BME280;47427;51.976;5.326;2022-08-01T14:00:47;101809.38;;;40.45;18.37
45403;BME280;47427;51.976;5.326;2022-08-01T14:04:10;101808.00;;;40.71;18.46
45403;BME280;47427;51.976;5.326;2022-08-01T14:07:33;101802.13;;;41.18;16.92
45403;BME280;47427;51.976;5.326;2022-08-01T14:10:56;101807.97;;;40.83;17.29
45403;BME280;47427;51.976;5.326;2022-08-01T14:14:21;101812.44;;;40.84;18.24
45403;BME280;47427;51.976;5.326;2022-08-01T14:17:44;101806.50;;;41.00;18.63
45403;BME280;47427;51.976;5.326;2022-08-01T14:21:07;101802.44;;;41.25;17.86
45403;BME280;47427;51.976;5.326;2022-08-01T14:24:28;101795.00;;;41.15;17.85
45403;BME280;47427;51.976;5.326;2022-08-01T14:27:53;101793.34;;;41.34;17.85
45403;BME280;47427;51.976;5.326;2022-08-01T14:31:16;101795.50;;;42.02;16.86
45403;BME280;47427;51.976;5.326;2022-08-01T14:34:38;101792.94;;;42.39;16.44
45403;BME280;47427;51.976;5.326;2022-08-01T14:38:01;101796.56;;;42.78;16.69
45403;BME280;47427;51.976;5.326;2022-08-01T14:41:23;101797.88;;;42.35;16.34
45403;BME280;47427;51.976;5.326;2022-08-01T14:44:45;101793.91;;;42.18;15.58
45403;BME280;47427;51.976;5.326;2022-08-01T14:48:07;101788.44;;;42.48;16.09
45403;BME280;47427;51.976;5.326;2022-08-01T14:51:29;101785.38;;;42.51;15.87
45403;BME280;47427;51.976;5.326;2022-08-01T14:54:55;101794.41;;;42.43;15.52
45403;BME280;47427;51.976;5.326;2022-08-01T14:58:18;101788.69;;;42.74;14.94
45403;BME280;47427;51.976;5.326;2022-08-01T15:01:40;101791.78;;;41.72;14.72
45403;BME280;47427;51.976;5.326;2022-08-01T15:05:01;101793.50;;;41.63;15.25
45403;BME280;47427;51.976;5.326;2022-08-01T15:08:24;101792.63;;;42.22;14.21
45403;BME280;47427;51.976;5.326;2022-08-01T15:11:47;101793.78;;;42.10;14.51
45403;BME280;47427;51.976;5.326;2022-08-01T15:15:10;101793.19;;;42.26;14.79
45403;BME280;47427;51.976;5.326;2022-08-01T15:18:31;101799.28;;;42.00;14.64
45403;BME280;47427;51.976;5.326;2022-08-01T15:21:54;101793.97;;;41.68;14.94
45403;BME280;47427;51.976;5.326;2022-08-01T15:25:17;101790.00;;;41.30;15.55
45403;BME280;47427;51.976;5.326;2022-08-01T15:28:38;101804.47;;;41.23;15.07
45403;BME280;47427;51.976;5.326;2022-08-01T15:32:03;101802.34;;;40.52;15.78
45403;BME280;47427;51.976;5.326;2022-08-01T15:35:26;101808.44;;;40.88;15.19
45403;BME280;47427;51.976;5.326;2022-08-01T15:38:48;101814.81;;;41.09;15.90
45403;BME280;47427;51.976;5.326;2022-08-01T15:42:16;101809.78;;;41.14;14.30
45403;BME280;47427;51.976;5.326;2022-08-01T15:45:38;101803.31;;;40.83;15.11
45403;BME280;47427;51.976;5.326;2022-08-01T15:49:04;101806.78;;;39.89;15.51
45403;BME280;47427;51.976;5.326;2022-08-01T15:52:27;101796.91;;;39.52;16.36
45403;BME280;47427;51.976;5.326;2022-08-01T15:55:49;101810.56;;;38.96;16.14
45403;BME280;47427;51.976;5.326;2022-08-01T15:59:12;101802.25;;;38.01;17.86
45403;BME280;47427;51.976;5.326;2022-08-01T16:02:35;101786.44;;;37.42;18.44
45403;BME280;47427;51.976;5.326;2022-08-01T16:05:56;101806.53;;;36.64;17.66
45403;BME280;47427;51.976;5.326;2022-08-01T16:09:21;101806.63;;;36.63;17.25
45403;BME280;47427;51.976;5.326;2022-08-01T16:12:43;101798.09;;;36.13;18.60
45403;BME280;47427;51.976;5.326;2022-08-01T16:16:11;101802.69;;;36.67;18.47
45403;BME280;47427;51.976;5.326;2022-08-01T16:19:34;101798.66;;;36.73;18.16
45403;BME280;47427;51.976;5.326;2022-08-01T16:22:58;101786.47;;;36.64;18.62
45403;BME280;47427;51.976;5.326;2022-08-01T16:26:21;101789.94;;;35.85;18.70
45403;BME280;47427;51.976;5.326;2022-08-01T16:29:45;101796.56;;;35.09;19.43
45403;BME280;47427;51.976;5.326;2022-08-01T16:33:08;101796.69;;;34.15;20.73
45403;BME280;47427;51.976;5.326;2022-08-01T16:36:49;101798.63;;;33.48;20.28
45403;BME280;47427;51.976;5.326;2022-08-01T16:40:12;101798.34;;;31.76;22.10
45403;BME280;47427;51.976;5.326;2022-08-01T16:43:34;101795.00;;;30.02;23.80
45403;BME280;47427;51.976;5.326;2022-08-01T16:46:56;101793.00;;;28.86;25.30
45403;BME280;47427;51.976;5.326;2022-08-01T16:50:19;101790.25;;;28.06;27.46
45403;BME280;47427;51.976;5.326;2022-08-01T16:53:42;101791.41;;;27.37;27.39
45403;BME280;47427;51.976;5.326;2022-08-01T16:57:04;101788.13;;;26.93;28.82
45403;BME280;47427;51.976;5.326;2022-08-01T17:00:29;101789.06;;;26.57;29.11
45403;BME280;47427;51.976;5.326;2022-08-01T17:03:52;101802.97;;;26.37;29.17
45403;BME280;47427;51.976;5.326;2022-08-01T17:07:14;101796.84;;;25.93;29.29
45403;BME280;47427;51.976;5.326;2022-08-01T17:10:55;101794.75;;;25.66;30.40
45403;BME280;47427;51.976;5.326;2022-08-01T17:14:19;101794.19;;;25.50;29.79
45403;BME280;47427;51.976;5.326;2022-08-01T17:17:41;101803.47;;;25.34;30.60
45403;BME280;47427;51.976;5.326;2022-08-01T17:21:06;101794.94;;;25.10;30.47
45403;BME280;47427;51.976;5.326;2022-08-01T17:24:28;101809.53;;;24.95;31.11
45403;BME280;47427;51.976;5.326;2022-08-01T17:27:53;101809.81;;;24.80;31.67
45403;BME280;47427;51.976;5.326;2022-08-01T17:31:17;101809.09;;;24.69;32.53
45403;BME280;47427;51.976;5.326;2022-08-01T17:34:42;101812.03;;;24.53;33.95
45403;BME280;47427;51.976;5.326;2022-08-01T17:38:05;101811.31;;;24.40;34.07
45403;BME280;47427;51.976;5.326;2022-08-01T17:41:29;101809.63;;;24.36;35.38
45403;BME280;47427;51.976;5.326;2022-08-01T17:44:52;101805.50;;;24.12;35.46
45403;BME280;47427;51.976;5.326;2022-08-01T17:48:18;101805.69;;;24.00;35.83
45403;BME280;47427;51.976;5.326;2022-08-01T17:51:40;101807.63;;;23.89;36.89
45403;BME280;47427;51.976;5.326;2022-08-01T17:55:06;101801.59;;;23.73;38.05
45403;BME280;47427;51.976;5.326;2022-08-01T17:58:27;101800.91;;;23.54;37.78
45403;BME280;47427;51.976;5.326;2022-08-01T18:01:53;101799.47;;;23.24;37.36
45403;BME280;47427;51.976;5.326;2022-08-01T18:05:16;101819.22;;;23.15;38.04